Daikoku — JD3247 — position and weather

sailwx.info

Track history (hours):
 
Tides and Currents Weather Stations Pressure Air Temp Water Temp Dewpoint Dewpoint Depression Visibility Wind Speed Wind Dir Waves Ship Positions

Daikoku

Last reported at 2017-Feb-22 10:06 UTC. Time now 2017-Feb-23 02:39 UTC.
Position N 34°37' E 134°58'.

Length 95 m; draft 4.1 m.

Type: Cargo ship. MMSI: 431003009.

Date/timePositionNaut miles runAvg speedWind from/ knotsBaromVisibWave heightAir tempDewpointWater temp
2017-Feb-22 10:06N 34°37' E 134°58'712.1
2017-Feb-22 09:33N 34°36' E 135°06'8 8.0
2017-Feb-22 08:33N 34°40' E 135°14'0 0.1
2017-Feb-22 07:33N 34°40' E 135°14'0 0.0
2017-Feb-22 06:33N 34°40' E 135°14'1 0.5
2017-Feb-22 05:33N 34°39' E 135°15'3 3.3
2017-Feb-22 04:33N 34°39' E 135°19'0 0.1
2017-Feb-22 03:33N 34°39' E 135°19'2 1.9
2017-Feb-22 02:33N 34°41' E 135°18'3 3.1
2017-Feb-22 01:33N 34°38' E 135°20'0 0.0
2017-Feb-22 00:33N 34°38' E 135°20'4 4.4
2017-Feb-21 23:33N 34°38' E 135°25'0 0.0
2017-Feb-21 22:33N 34°38' E 135°25'9 9.2
2017-Feb-21 21:33N 34°35' E 135°14'1212.3
2017-Feb-21 20:33N 34°37' E 134°59'11512.5
2017-Feb-21 11:20N 34°07' E 132°45'1012.5
2017-Feb-21 10:33N 34°03' E 132°34'6 0.5
2017-Feb-20 21:29N 34°03' E 132°26'13712.5
2017-Feb-20 10:33N 34°36' E 135°07'7 6.7
2017-Feb-20 09:32N 34°39' E 135°15'2 2.5
2017-Feb-20 08:33N 34°41' E 135°17'0 0.4
2017-Feb-20 07:33N 34°41' E 135°17'1 1.3
2017-Feb-20 06:33N 34°41' E 135°16'1 0.9
2017-Feb-20 05:34N 34°41' E 135°17'0 0.0
2017-Feb-20 04:34N 34°41' E 135°17'0 0.0
2017-Feb-20 03:32N 34°41' E 135°17'0 0.0
2017-Feb-20 02:33N 34°41' E 135°17'3 3.5
2017-Feb-20 01:33N 34°41' E 135°12'0 0.0
2017-Feb-20 00:34N 34°41' E 135°12'0 0.0
2017-Feb-19 23:33N 34°41' E 135°12'0 0.0
2017-Feb-19 22:33N 34°41' E 135°12'0 0.0
2017-Feb-19 21:34N 34°41' E 135°12'0 0.0
2017-Feb-19 20:34N 34°41' E 135°12'0 0.0
2017-Feb-19 19:34N 34°41' E 135°12'0 0.0
2017-Feb-19 18:34N 34°41' E 135°12'0 0.0
2017-Feb-19 17:34N 34°41' E 135°12'0 0.0
2017-Feb-19 16:33N 34°41' E 135°12'0 0.0
2017-Feb-19 15:33N 34°41' E 135°12'0 0.0
2017-Feb-19 14:33N 34°41' E 135°12'0 0.0
2017-Feb-19 13:34N 34°41' E 135°12'0 0.0
2017-Feb-19 12:33N 34°41' E 135°12'4 3.5
2017-Feb-19 11:34N 34°39' E 135°16'1010.0
2017-Feb-19 10:33N 34°35' E 135°05'12112.1
2017-Feb-19 00:33N 33°59' E 132°45'1211.8
2017-Feb-18 23:33N 33°51' E 132°34'1211.7
2017-Feb-18 22:33N 33°45' E 132°22'6 0.2
2017-Feb-17 22:33N 33°50' E 132°19'1212.3
2017-Feb-17 21:33N 33°53' E 132°34'1313.0
2017-Feb-17 20:33N 34°02' E 132°45'11412.1
2017-Feb-17 11:09N 34°37' E 134°57'610.1
2017-Feb-17 10:34N 34°36' E 135°04'1211.7
2017-Feb-17 09:34N 34°38' E 135°18'3 3.0
2017-Feb-17 08:33N 34°41' E 135°17'1 1.2
2017-Feb-17 07:34N 34°41' E 135°18'2 2.0
2017-Feb-17 06:34N 34°39' E 135°19'4 3.6
2017-Feb-17 05:34N 34°39' E 135°15'0 0.0
2017-Feb-17 04:33N 34°39' E 135°15'0 0.0
2017-Feb-17 03:31N 34°39' E 135°15'0 0.0
2017-Feb-17 02:34N 34°39' E 135°15'2 1.6
2017-Feb-17 01:34N 34°38' E 135°16'2 1.5
2017-Feb-17 00:33N 34°37' E 135°15'0 0.1
2017-Feb-16 23:34N 34°37' E 135°15'0 0.0
2017-Feb-16 22:34N 34°37' E 135°15'0 0.0
2017-Feb-16 21:34N 34°37' E 135°15'0 0.0
2017-Feb-16 20:33N 34°37' E 135°15'4 4.4
2017-Feb-16 19:34N 34°35' E 135°10'1211.8
2017-Feb-16 18:33N 34°36' E 134°56'11311.0
2017-Feb-16 08:15N 34°00' E 132°45'810.9
2017-Feb-16 07:30N 33°54' E 132°38'1111.5
2017-Feb-16 06:33N 33°47' E 132°28'1412.2
2017-Feb-16 05:26N 33°42' E 132°13'8 0.3
2017-Feb-15 01:20N 33°50' E 132°10'911.3
2017-Feb-15 00:33N 33°59' E 132°12'3 0.6
2017-Feb-14 19:09N 34°02' E 132°15'610.1
2017-Feb-14 18:32N 33°57' E 132°10'  
Track history (hours):
 
Tides and Currents Weather Stations Pressure Air Temp Water Temp Dewpoint Dewpoint Depression Visibility Wind Speed Wind Dir Waves Ship Positions

Daikoku

Last reported at 2017-Feb-22 10:06 UTC. Time now 2017-Feb-23 02:39 UTC.
Position N 34°37' E 134°58'.

Length 95 m; draft 4.1 m.

Type: Cargo ship. MMSI: 431003009.

Date/timePositionNaut miles runAvg speedWind from/ knotsBaromVisibWave heightAir tempDewpointWater temp
2017-Feb-22 10:06N 34°37' E 134°58'712.1
2017-Feb-22 09:33N 34°36' E 135°06'8 8.0
2017-Feb-22 08:33N 34°40' E 135°14'0 0.1
2017-Feb-22 07:33N 34°40' E 135°14'0 0.0
2017-Feb-22 06:33N 34°40' E 135°14'1 0.5
2017-Feb-22 05:33N 34°39' E 135°15'3 3.3
2017-Feb-22 04:33N 34°39' E 135°19'0 0.1
2017-Feb-22 03:33N 34°39' E 135°19'2 1.9
2017-Feb-22 02:33N 34°41' E 135°18'3 3.1
2017-Feb-22 01:33N 34°38' E 135°20'0 0.0
2017-Feb-22 00:33N 34°38' E 135°20'4 4.4
2017-Feb-21 23:33N 34°38' E 135°25'0 0.0
2017-Feb-21 22:33N 34°38' E 135°25'9 9.2
2017-Feb-21 21:33N 34°35' E 135°14'1212.3
2017-Feb-21 20:33N 34°37' E 134°59'11512.5
2017-Feb-21 11:20N 34°07' E 132°45'1012.5
2017-Feb-21 10:33N 34°03' E 132°34'6 0.5
2017-Feb-20 21:29N 34°03' E 132°26'13712.5
2017-Feb-20 10:33N 34°36' E 135°07'7 6.7
2017-Feb-20 09:32N 34°39' E 135°15'2 2.5
2017-Feb-20 08:33N 34°41' E 135°17'0 0.4
2017-Feb-20 07:33N 34°41' E 135°17'1 1.3
2017-Feb-20 06:33N 34°41' E 135°16'1 0.9
2017-Feb-20 05:34N 34°41' E 135°17'0 0.0
2017-Feb-20 04:34N 34°41' E 135°17'0 0.0
2017-Feb-20 03:32N 34°41' E 135°17'0 0.0
2017-Feb-20 02:33N 34°41' E 135°17'3 3.5
2017-Feb-20 01:33N 34°41' E 135°12'0 0.0
2017-Feb-20 00:34N 34°41' E 135°12'0 0.0
2017-Feb-19 23:33N 34°41' E 135°12'0 0.0
2017-Feb-19 22:33N 34°41' E 135°12'0 0.0
2017-Feb-19 21:34N 34°41' E 135°12'0 0.0
2017-Feb-19 20:34N 34°41' E 135°12'0 0.0
2017-Feb-19 19:34N 34°41' E 135°12'0 0.0
2017-Feb-19 18:34N 34°41' E 135°12'0 0.0
2017-Feb-19 17:34N 34°41' E 135°12'0 0.0
2017-Feb-19 16:33N 34°41' E 135°12'0 0.0
2017-Feb-19 15:33N 34°41' E 135°12'0 0.0
2017-Feb-19 14:33N 34°41' E 135°12'0 0.0
2017-Feb-19 13:34N 34°41' E 135°12'0 0.0
2017-Feb-19 12:33N 34°41' E 135°12'4 3.5
2017-Feb-19 11:34N 34°39' E 135°16'1010.0
2017-Feb-19 10:33N 34°35' E 135°05'12112.1
2017-Feb-19 00:33N 33°59' E 132°45'1211.8
2017-Feb-18 23:33N 33°51' E 132°34'1211.7
2017-Feb-18 22:33N 33°45' E 132°22'6 0.2
2017-Feb-17 22:33N 33°50' E 132°19'1212.3
2017-Feb-17 21:33N 33°53' E 132°34'1313.0
2017-Feb-17 20:33N 34°02' E 132°45'11412.1
2017-Feb-17 11:09N 34°37' E 134°57'610.1
2017-Feb-17 10:34N 34°36' E 135°04'1211.7
2017-Feb-17 09:34N 34°38' E 135°18'3 3.0
2017-Feb-17 08:33N 34°41' E 135°17'1 1.2
2017-Feb-17 07:34N 34°41' E 135°18'2 2.0
2017-Feb-17 06:34N 34°39' E 135°19'4 3.6
2017-Feb-17 05:34N 34°39' E 135°15'0 0.0
2017-Feb-17 04:33N 34°39' E 135°15'0 0.0
2017-Feb-17 03:31N 34°39' E 135°15'0 0.0
2017-Feb-17 02:34N 34°39' E 135°15'2 1.6
2017-Feb-17 01:34N 34°38' E 135°16'2 1.5
2017-Feb-17 00:33N 34°37' E 135°15'0 0.1
2017-Feb-16 23:34N 34°37' E 135°15'0 0.0
2017-Feb-16 22:34N 34°37' E 135°15'0 0.0
2017-Feb-16 21:34N 34°37' E 135°15'0 0.0
2017-Feb-16 20:33N 34°37' E 135°15'4 4.4
2017-Feb-16 19:34N 34°35' E 135°10'1211.8
2017-Feb-16 18:33N 34°36' E 134°56'11311.0
2017-Feb-16 08:15N 34°00' E 132°45'810.9
2017-Feb-16 07:30N 33°54' E 132°38'1111.5
2017-Feb-16 06:33N 33°47' E 132°28'1412.2
2017-Feb-16 05:26N 33°42' E 132°13'8 0.3
2017-Feb-15 01:20N 33°50' E 132°10'911.3
2017-Feb-15 00:33N 33°59' E 132°12'3 0.6
2017-Feb-14 19:09N 34°02' E 132°15'610.1
2017-Feb-14 18:32N 33°57' E 132°10'  

Dump ship's entire track history